sensor_id;sensor_type;location;lat;lon;timestamp;pressure;altitude;pressure_sealevel;temperature;humidity
29197;BME280;62796;42.654;23.316;2023-02-22T00:00:52;94543.03;;;12.09;32.53
29197;BME280;62796;42.654;23.316;2023-02-22T00:03:24;94543.28;;;12.05;32.56
29197;BME280;62796;42.654;23.316;2023-02-22T00:05:57;94543.94;;;11.95;32.67
29197;BME280;62796;42.654;23.316;2023-02-22T00:08:26;94552.00;;;11.93;32.55
29197;BME280;62796;42.654;23.316;2023-02-22T00:11:06;94552.78;;;11.93;33.13
29197;BME280;62796;42.654;23.316;2023-02-22T00:13:36;94548.63;;;11.78;33.05
29197;BME280;62796;42.654;23.316;2023-02-22T00:16:03;94553.91;;;11.76;33.53
29197;BME280;62796;42.654;23.316;2023-02-22T00:18:28;94549.22;;;11.61;34.08
29197;BME280;62796;42.654;23.316;2023-02-22T00:20:55;94542.28;;;11.46;33.93
29197;BME280;62796;42.654;23.316;2023-02-22T00:23:25;94549.88;;;11.51;34.32
29197;BME280;62796;42.654;23.316;2023-02-22T00:25:53;94550.38;;;11.49;33.88
29197;BME280;62796;42.654;23.316;2023-02-22T00:28:18;94549.88;;;11.51;33.54
29197;BME280;62796;42.654;23.316;2023-02-22T00:30:44;94539.59;;;11.57;33.69
29197;BME280;62796;42.654;23.316;2023-02-22T00:33:14;94541.38;;;11.60;33.59
29197;BME280;62796;42.654;23.316;2023-02-22T00:35:40;94536.16;;;11.68;32.81
29197;BME280;62796;42.654;23.316;2023-02-22T00:38:06;94527.91;;;11.73;33.03
29197;BME280;62796;42.654;23.316;2023-02-22T00:40:33;94536.75;;;11.77;32.85
29197;BME280;62796;42.654;23.316;2023-02-22T00:43:00;94525.19;;;11.79;33.10
29197;BME280;62796;42.654;23.316;2023-02-22T00:45:28;94524.44;;;11.84;33.09
29197;BME280;62796;42.654;23.316;2023-02-22T00:47:54;94525.94;;;11.79;33.48
29197;BME280;62796;42.654;23.316;2023-02-22T00:50:21;94517.56;;;11.74;33.97
29197;BME280;62796;42.654;23.316;2023-02-22T00:52:47;94520.75;;;11.66;34.10
29197;BME280;62796;42.654;23.316;2023-02-22T00:55:23;94520.50;;;11.64;34.46
29197;BME280;62796;42.654;23.316;2023-02-22T00:57:49;94512.63;;;11.57;34.47
29197;BME280;62796;42.654;23.316;2023-02-22T01:00:39;94513.56;;;11.49;34.57
29197;BME280;62796;42.654;23.316;2023-02-22T01:03:07;94513.03;;;11.45;34.90
29197;BME280;62796;42.654;23.316;2023-02-22T01:05:33;94500.91;;;11.42;35.17
29197;BME280;62796;42.654;23.316;2023-02-22T01:08:00;94500.31;;;11.33;34.94
29197;BME280;62796;42.654;23.316;2023-02-22T01:10:28;94507.06;;;11.26;35.26
29197;BME280;62796;42.654;23.316;2023-02-22T01:12:55;94500.22;;;11.22;34.97
29197;BME280;62796;42.654;23.316;2023-02-22T01:15:23;94494.88;;;11.18;34.96
29197;BME280;62796;42.654;23.316;2023-02-22T01:17:51;94490.88;;;11.19;35.06
29197;BME280;62796;42.654;23.316;2023-02-22T01:20:20;94497.72;;;11.24;35.33
29197;BME280;62796;42.654;23.316;2023-02-22T01:22:47;94495.66;;;11.19;35.17
29197;BME280;62796;42.654;23.316;2023-02-22T01:25:20;94493.16;;;11.21;35.50
29197;BME280;62796;42.654;23.316;2023-02-22T01:27:46;94489.59;;;11.20;35.22
29197;BME280;62796;42.654;23.316;2023-02-22T01:30:13;94488.78;;;11.14;35.40
29197;BME280;62796;42.654;23.316;2023-02-22T01:32:40;94492.06;;;11.13;34.87
29197;BME280;62796;42.654;23.316;2023-02-22T01:35:11;94483.72;;;11.07;35.00
29197;BME280;62796;42.654;23.316;2023-02-22T01:37:38;94483.00;;;11.12;35.61
29197;BME280;62796;42.654;23.316;2023-02-22T01:40:06;94482.72;;;11.10;35.79
29197;BME280;62796;42.654;23.316;2023-02-22T01:42:32;94482.69;;;11.04;35.87
29197;BME280;62796;42.654;23.316;2023-02-22T01:48:38;94485.06;;;10.91;36.84
29197;BME280;62796;42.654;23.316;2023-02-22T01:51:18;94497.34;;;10.85;36.98
29197;BME280;62796;42.654;23.316;2023-02-22T01:53:54;94499.28;;;10.79;36.78
29197;BME280;62796;42.654;23.316;2023-02-22T01:56:22;94494.88;;;10.67;36.97
29197;BME280;62796;42.654;23.316;2023-02-22T01:58:57;94494.41;;;10.68;37.02
29197;BME280;62796;42.654;23.316;2023-02-22T02:01:26;94494.88;;;10.67;37.23
29197;BME280;62796;42.654;23.316;2023-02-22T02:03:57;94496.81;;;10.61;37.07
29197;BME280;62796;42.654;23.316;2023-02-22T02:06:25;94491.22;;;10.55;37.14
29197;BME280;62796;42.654;23.316;2023-02-22T02:09:04;94488.66;;;10.51;37.03
29197;BME280;62796;42.654;23.316;2023-02-22T02:11:35;94487.56;;;10.43;36.91
29197;BME280;62796;42.654;23.316;2023-02-22T02:14:05;94491.28;;;10.40;37.39
29197;BME280;62796;42.654;23.316;2023-02-22T02:16:46;94499.03;;;10.36;37.34
29197;BME280;62796;42.654;23.316;2023-02-22T02:27:45;94502.31;;;10.35;37.06
29197;BME280;62796;42.654;23.316;2023-02-22T02:36:02;94509.59;;;10.32;37.50
29197;BME280;62796;42.654;23.316;2023-02-22T02:38:49;94499.88;;;10.22;37.62
29197;BME280;62796;42.654;23.316;2023-02-22T02:41:25;94518.50;;;10.22;37.82
29197;BME280;62796;42.654;23.316;2023-02-22T02:43:56;94521.47;;;10.18;37.64
29197;BME280;62796;42.654;23.316;2023-02-22T02:46:31;94515.38;;;10.14;37.59
29197;BME280;62796;42.654;23.316;2023-02-22T02:49:02;94514.97;;;10.07;37.83
29197;BME280;62796;42.654;23.316;2023-02-22T02:51:35;94517.00;;;10.06;37.68
29197;BME280;62796;42.654;23.316;2023-02-22T02:54:02;94516.72;;;10.04;37.91
29197;BME280;62796;42.654;23.316;2023-02-22T02:56:28;94526.28;;;10.03;37.71
29197;BME280;62796;42.654;23.316;2023-02-22T02:58:55;94516.16;;;10.00;37.91
29197;BME280;62796;42.654;23.316;2023-02-22T03:12:40;94516.94;;;9.86;38.38
29197;BME280;62796;42.654;23.316;2023-02-22T03:17:46;94517.44;;;9.84;38.54
29197;BME280;62796;42.654;23.316;2023-02-22T03:20:33;94511.34;;;9.80;38.48
29197;BME280;62796;42.654;23.316;2023-02-22T03:23:10;94521.75;;;9.85;38.88
29197;BME280;62796;42.654;23.316;2023-02-22T03:25:42;94529.56;;;9.87;38.42
29197;BME280;62796;42.654;23.316;2023-02-22T03:28:13;94526.53;;;9.85;38.52
29197;BME280;62796;42.654;23.316;2023-02-22T03:30:47;94521.00;;;9.85;38.53
29197;BME280;62796;42.654;23.316;2023-02-22T03:33:19;94512.97;;;9.87;38.31
29197;BME280;62796;42.654;23.316;2023-02-22T03:35:55;94521.00;;;9.85;38.43
29197;BME280;62796;42.654;23.316;2023-02-22T03:38:26;94520.41;;;9.81;38.45
29197;BME280;62796;42.654;23.316;2023-02-22T03:40:55;94525.88;;;9.75;38.77
29197;BME280;62796;42.654;23.316;2023-02-22T03:43:40;94525.66;;;9.79;38.68
29197;BME280;62796;42.654;23.316;2023-02-22T03:46:08;94520.91;;;9.79;38.81
29197;BME280;62796;42.654;23.316;2023-02-22T03:48:55;94519.84;;;9.77;38.75
29197;BME280;62796;42.654;23.316;2023-02-22T03:51:24;94514.72;;;9.70;38.75
29197;BME280;62796;42.654;23.316;2023-02-22T03:53:50;94515.94;;;9.69;39.15
29197;BME280;62796;42.654;23.316;2023-02-22T03:56:25;94522.72;;;9.68;39.00
29197;BME280;62796;42.654;23.316;2023-02-22T03:58:52;94511.03;;;9.58;39.04
29197;BME280;62796;42.654;23.316;2023-02-22T04:01:18;94511.31;;;9.60;39.46
29197;BME280;62796;42.654;23.316;2023-02-22T04:03:44;94515.31;;;9.59;39.69
29197;BME280;62796;42.654;23.316;2023-02-22T04:06:10;94524.63;;;9.62;39.65
29197;BME280;62796;42.654;23.316;2023-02-22T04:08:36;94516.06;;;9.60;39.54
29197;BME280;62796;42.654;23.316;2023-02-22T04:11:01;94518.16;;;9.65;39.74
29197;BME280;62796;42.654;23.316;2023-02-22T04:13:27;94513.22;;;9.54;39.96
29197;BME280;62796;42.654;23.316;2023-02-22T04:15:53;94517.03;;;9.57;39.82
29197;BME280;62796;42.654;23.316;2023-02-22T04:18:18;94516.00;;;9.54;40.11
29197;BME280;62796;42.654;23.316;2023-02-22T04:20:44;94515.78;;;9.58;39.81
29197;BME280;62796;42.654;23.316;2023-02-22T04:23:09;94505.00;;;9.60;40.23
29197;BME280;62796;42.654;23.316;2023-02-22T04:25:35;94509.03;;;9.59;40.23
29197;BME280;62796;42.654;23.316;2023-02-22T04:28:00;94514.00;;;9.55;40.54
29197;BME280;62796;42.654;23.316;2023-02-22T04:30:26;94510.66;;;9.51;40.11
29197;BME280;62796;42.654;23.316;2023-02-22T04:32:54;94514.94;;;9.52;40.23
29197;BME280;62796;42.654;23.316;2023-02-22T04:35:20;94521.25;;;9.52;40.65
29197;BME280;62796;42.654;23.316;2023-02-22T04:37:45;94519.34;;;9.43;40.36
29197;BME280;62796;42.654;23.316;2023-02-22T04:40:12;94530.41;;;9.43;40.58
29197;BME280;62796;42.654;23.316;2023-02-22T04:42:38;94533.81;;;9.38;39.96
29197;BME280;62796;42.654;23.316;2023-02-22T04:45:06;94537.84;;;9.37;40.02
29197;BME280;62796;42.654;23.316;2023-02-22T04:47:33;94526.66;;;9.32;39.87
29197;BME280;62796;42.654;23.316;2023-02-22T04:49:58;94527.34;;;9.41;39.91
29197;BME280;62796;42.654;23.316;2023-02-22T04:52:25;94532.88;;;9.41;39.86
29197;BME280;62796;42.654;23.316;2023-02-22T04:54:50;94527.34;;;9.41;39.60
29197;BME280;62796;42.654;23.316;2023-02-22T04:57:16;94524.56;;;9.41;39.98
29197;BME280;62796;42.654;23.316;2023-02-22T04:59:41;94525.44;;;9.48;40.16
29197;BME280;62796;42.654;23.316;2023-02-22T05:02:07;94520.84;;;9.44;39.74
29197;BME280;62796;42.654;23.316;2023-02-22T05:04:32;94519.34;;;9.43;39.97
29197;BME280;62796;42.654;23.316;2023-02-22T05:06:58;94517.81;;;9.42;39.92
29197;BME280;62796;42.654;23.316;2023-02-22T05:09:23;94527.34;;;9.41;39.99
29197;BME280;62796;42.654;23.316;2023-02-22T05:11:48;94521.06;;;9.26;40.54
29197;BME280;62796;42.654;23.316;2023-02-22T05:14:14;94530.19;;;9.32;40.55
29197;BME280;62796;42.654;23.316;2023-02-22T05:16:39;94532.09;;;9.26;40.56
29197;BME280;62796;42.654;23.316;2023-02-22T05:19:05;94531.16;;;9.29;41.00
29197;BME280;62796;42.654;23.316;2023-02-22T05:21:30;94530.03;;;9.21;40.83
29197;BME280;62796;42.654;23.316;2023-02-22T05:23:56;94534.97;;;9.17;40.69
29197;BME280;62796;42.654;23.316;2023-02-22T05:26:22;94549.84;;;9.20;40.61
29197;BME280;62796;42.654;23.316;2023-02-22T05:28:47;94549.84;;;9.20;40.78
29197;BME280;62796;42.654;23.316;2023-02-22T05:31:13;94548.50;;;9.15;40.92
29197;BME280;62796;42.654;23.316;2023-02-22T05:33:38;94559.94;;;9.08;40.95
29197;BME280;62796;42.654;23.316;2023-02-22T05:36:04;94556.50;;;9.13;41.02
29197;BME280;62796;42.654;23.316;2023-02-22T05:38:31;94568.53;;;9.10;41.00
29197;BME280;62796;42.654;23.316;2023-02-22T05:40:57;94554.13;;;9.06;41.39
29197;BME280;62796;42.654;23.316;2023-02-22T05:43:22;94580.03;;;9.09;41.30
29197;BME280;62796;42.654;23.316;2023-02-22T05:45:48;94574.03;;;9.10;41.74
29197;BME280;62796;42.654;23.316;2023-02-22T05:48:13;94576.31;;;9.12;41.56
29197;BME280;62796;42.654;23.316;2023-02-22T05:50:38;94576.13;;;9.15;41.41
29197;BME280;62796;42.654;23.316;2023-02-22T05:53:05;94576.31;;;9.12;41.11
29197;BME280;62796;42.654;23.316;2023-02-22T05:55:30;94579.75;;;9.21;41.02
29197;BME280;62796;42.654;23.316;2023-02-22T05:57:56;94580.91;;;9.29;41.08
29197;BME280;62796;42.654;23.316;2023-02-22T06:00:27;94582.34;;;9.39;40.66
29197;BME280;62796;42.654;23.316;2023-02-22T06:02:59;94588.91;;;9.57;40.79
29197;BME280;62796;42.654;23.316;2023-02-22T06:05:25;94584.03;;;9.81;40.97
29197;BME280;62796;42.654;23.316;2023-02-22T06:07:51;94585.34;;;10.00;40.30
29197;BME280;62796;42.654;23.316;2023-02-22T06:10:17;94588.19;;;10.20;40.07
29197;BME280;62796;42.654;23.316;2023-02-22T06:12:42;94591.88;;;10.52;38.90
29197;BME280;62796;42.654;23.316;2023-02-22T06:15:08;94583.31;;;10.70;38.78
29197;BME280;62796;42.654;23.316;2023-02-22T06:17:34;94588.91;;;10.96;38.45
29197;BME280;62796;42.654;23.316;2023-02-22T06:20:00;94589.97;;;11.24;36.58
29197;BME280;62796;42.654;23.316;2023-02-22T06:22:25;94589.16;;;11.44;36.08
29197;BME280;62796;42.654;23.316;2023-02-22T06:24:51;94585.00;;;11.59;35.60
29197;BME280;62796;42.654;23.316;2023-02-22T06:27:16;94594.34;;;11.62;35.10
29197;BME280;62796;42.654;23.316;2023-02-22T06:29:45;94591.44;;;11.71;35.05
29197;BME280;62796;42.654;23.316;2023-02-22T06:32:12;94582.94;;;11.80;34.67
29197;BME280;62796;42.654;23.316;2023-02-22T06:34:37;94585.81;;;11.91;35.15
29197;BME280;62796;42.654;23.316;2023-02-22T06:37:05;94592.31;;;12.19;33.95
29197;BME280;62796;42.654;23.316;2023-02-22T06:39:31;94585.16;;;12.44;33.68
29197;BME280;62796;42.654;23.316;2023-02-22T06:41:56;94574.91;;;12.61;32.89
29197;BME280;62796;42.654;23.316;2023-02-22T06:44:23;94588.41;;;12.91;33.35
29197;BME280;62796;42.654;23.316;2023-02-22T06:46:49;94576.19;;;13.25;32.44
29197;BME280;62796;42.654;23.316;2023-02-22T06:49:19;94569.41;;;13.48;32.49
29197;BME280;62796;42.654;23.316;2023-02-22T06:51:45;94577.53;;;13.91;31.83
29197;BME280;62796;42.654;23.316;2023-02-22T06:54:11;94579.03;;;14.14;31.04
29197;BME280;62796;42.654;23.316;2023-02-22T06:56:36;94582.31;;;14.46;30.70
29197;BME280;62796;42.654;23.316;2023-02-22T06:59:02;94572.88;;;14.76;30.20
29197;BME280;62796;42.654;23.316;2023-02-22T07:01:28;94575.28;;;15.08;29.56
29197;BME280;62796;42.654;23.316;2023-02-22T07:03:53;94578.25;;;15.21;29.64
29197;BME280;62796;42.654;23.316;2023-02-22T07:06:19;94581.75;;;15.38;28.94
29197;BME280;62796;42.654;23.316;2023-02-22T07:08:44;94584.50;;;15.84;28.45
29197;BME280;62796;42.654;23.316;2023-02-22T07:11:10;94586.13;;;16.34;27.88
29197;BME280;62796;42.654;23.316;2023-02-22T07:13:35;94581.19;;;16.75;27.09
29197;BME280;62796;42.654;23.316;2023-02-22T07:16:00;94577.19;;;17.13;26.24
29197;BME280;62796;42.654;23.316;2023-02-22T07:18:26;94582.63;;;17.25;25.42
29197;BME280;62796;42.654;23.316;2023-02-22T07:20:52;94588.09;;;17.17;25.38
29197;BME280;62796;42.654;23.316;2023-02-22T07:23:19;94589.75;;;17.26;25.54
29197;BME280;62796;42.654;23.316;2023-02-22T07:25:44;94596.22;;;17.58;24.60
29197;BME280;62796;42.654;23.316;2023-02-22T07:28:10;94597.22;;;17.60;24.94
29197;BME280;62796;42.654;23.316;2023-02-22T07:30:36;94590.66;;;17.90;24.71
29197;BME280;62796;42.654;23.316;2023-02-22T07:33:04;94586.09;;;18.37;24.00
29197;BME280;62796;42.654;23.316;2023-02-22T07:35:50;94590.94;;;18.68;23.10
29197;BME280;62796;42.654;23.316;2023-02-22T07:38:18;94593.66;;;18.87;23.29
29197;BME280;62796;42.654;23.316;2023-02-22T07:40:44;94577.47;;;19.19;22.73
29197;BME280;62796;42.654;23.316;2023-02-22T07:43:16;94584.47;;;19.52;22.65
29197;BME280;62796;42.654;23.316;2023-02-22T07:45:42;94578.34;;;19.74;21.86
29197;BME280;62796;42.654;23.316;2023-02-22T07:48:08;94577.44;;;19.46;21.77
29197;BME280;62796;42.654;23.316;2023-02-22T07:50:34;94568.06;;;18.91;22.63
29197;BME280;62796;42.654;23.316;2023-02-22T07:53:02;94576.81;;;18.74;22.75
29197;BME280;62796;42.654;23.316;2023-02-22T07:55:29;94576.22;;;18.17;23.79
29197;BME280;62796;42.654;23.316;2023-02-22T07:58:00;94568.25;;;17.90;24.29
29197;BME280;62796;42.654;23.316;2023-02-22T08:00:29;94568.34;;;18.16;23.98
29197;BME280;62796;42.654;23.316;2023-02-22T08:02:55;94567.50;;;18.79;24.00
29197;BME280;62796;42.654;23.316;2023-02-22T08:05:23;94569.66;;;19.52;22.98
29197;BME280;62796;42.654;23.316;2023-02-22T08:07:49;94560.31;;;19.70;22.01
29197;BME280;62796;42.654;23.316;2023-02-22T08:10:15;94572.53;;;20.06;21.65
29197;BME280;62796;42.654;23.316;2023-02-22T08:12:44;94562.09;;;20.56;21.28
29197;BME280;62796;42.654;23.316;2023-02-22T08:15:19;94566.53;;;21.00;20.95
29197;BME280;62796;42.654;23.316;2023-02-22T08:17:45;94564.16;;;21.04;20.49
29197;BME280;62796;42.654;23.316;2023-02-22T08:20:10;94573.41;;;21.12;20.47
29197;BME280;62796;42.654;23.316;2023-02-22T08:22:36;94563.75;;;21.28;20.62
29197;BME280;62796;42.654;23.316;2023-02-22T08:25:01;94567.56;;;21.38;20.47
29197;BME280;62796;42.654;23.316;2023-02-22T08:27:28;94567.84;;;21.63;20.45
29197;BME280;62796;42.654;23.316;2023-02-22T08:29:54;94566.63;;;21.87;20.09
29197;BME280;62796;42.654;23.316;2023-02-22T08:32:20;94557.31;;;22.07;19.07
29197;BME280;62796;42.654;23.316;2023-02-22T08:34:46;94556.22;;;22.40;19.25
29197;BME280;62796;42.654;23.316;2023-02-22T08:37:12;94554.09;;;22.11;19.09
29197;BME280;62796;42.654;23.316;2023-02-22T08:39:37;94553.97;;;21.73;19.86
29197;BME280;62796;42.654;23.316;2023-02-22T08:42:03;94563.72;;;22.23;19.64
29197;BME280;62796;42.654;23.316;2023-02-22T08:44:28;94552.50;;;22.68;19.34
29197;BME280;62796;42.654;23.316;2023-02-22T08:46:54;94548.47;;;23.09;18.68
29197;BME280;62796;42.654;23.316;2023-02-22T08:49:20;94550.97;;;22.90;18.86
29197;BME280;62796;42.654;23.316;2023-02-22T08:51:46;94547.59;;;22.69;19.03
29197;BME280;62796;42.654;23.316;2023-02-22T08:54:12;94542.09;;;22.40;19.40
29197;BME280;62796;42.654;23.316;2023-02-22T08:56:37;94547.16;;;22.34;19.75
29197;BME280;62796;42.654;23.316;2023-02-22T08:59:03;94538.72;;;22.95;19.29
29197;BME280;62796;42.654;23.316;2023-02-22T09:01:28;94537.69;;;23.38;18.70
29197;BME280;62796;42.654;23.316;2023-02-22T09:03:54;94536.47;;;23.71;18.38
29197;BME280;62796;42.654;23.316;2023-02-22T09:06:21;94543.84;;;23.99;17.91
29197;BME280;62796;42.654;23.316;2023-02-22T09:08:46;94541.16;;;24.16;17.74
29197;BME280;62796;42.654;23.316;2023-02-22T09:11:12;94539.84;;;23.69;18.26
29197;BME280;62796;42.654;23.316;2023-02-22T09:13:37;94530.59;;;23.77;18.16
29197;BME280;62796;42.654;23.316;2023-02-22T09:16:03;94539.75;;;23.92;17.97
29197;BME280;62796;42.654;23.316;2023-02-22T09:18:28;94538.13;;;24.14;17.69
29197;BME280;62796;42.654;23.316;2023-02-22T09:20:54;94537.06;;;24.34;17.81
29197;BME280;62796;42.654;23.316;2023-02-22T09:23:19;94531.22;;;24.32;17.27
29197;BME280;62796;42.654;23.316;2023-02-22T09:25:46;94524.47;;;23.48;18.65
29197;BME280;62796;42.654;23.316;2023-02-22T09:28:12;94538.47;;;23.86;18.28
29197;BME280;62796;42.654;23.316;2023-02-22T09:30:37;94530.56;;;24.16;17.82
29197;BME280;62796;42.654;23.316;2023-02-22T09:33:08;94532.88;;;24.35;17.47
29197;BME280;62796;42.654;23.316;2023-02-22T09:35:34;94527.09;;;23.53;17.97
29197;BME280;62796;42.654;23.316;2023-02-22T09:38:01;94527.25;;;22.85;19.00
29197;BME280;62796;42.654;23.316;2023-02-22T09:40:29;94523.00;;;23.24;18.64
29197;BME280;62796;42.654;23.316;2023-02-22T09:43:20;94523.13;;;22.48;19.65
29197;BME280;62796;42.654;23.316;2023-02-22T09:48:33;94517.06;;;22.14;19.82
29197;BME280;62796;42.654;23.316;2023-02-22T09:51:02;94517.09;;;22.82;19.06
29197;BME280;62796;42.654;23.316;2023-02-22T09:53:38;94516.19;;;23.42;18.05
29197;BME280;62796;42.654;23.316;2023-02-22T09:56:09;94511.19;;;23.65;17.37
29197;BME280;62796;42.654;23.316;2023-02-22T09:58:48;94516.69;;;23.96;17.04
29197;BME280;62796;42.654;23.316;2023-02-22T10:06:41;94500.47;;;24.53;16.88
29197;BME280;62796;42.654;23.316;2023-02-22T10:09:08;94494.69;;;24.68;16.53
29197;BME280;62796;42.654;23.316;2023-02-22T10:11:56;94493.91;;;24.93;16.46
29197;BME280;62796;42.654;23.316;2023-02-22T10:17:41;94481.41;;;25.30;16.67
29197;BME280;62796;42.654;23.316;2023-02-22T10:20:38;94486.66;;;25.51;16.19
29197;BME280;62796;42.654;23.316;2023-02-22T10:23:17;94476.56;;;25.74;16.24
29197;BME280;62796;42.654;23.316;2023-02-22T10:25:54;94468.19;;;25.76;16.11
29197;BME280;62796;42.654;23.316;2023-02-22T10:28:33;94458.38;;;25.77;15.85
29197;BME280;62796;42.654;23.316;2023-02-22T10:31:04;94460.25;;;26.02;16.04
29197;BME280;62796;42.654;23.316;2023-02-22T10:33:36;94454.28;;;26.24;15.81
29197;BME280;62796;42.654;23.316;2023-02-22T10:36:04;94452.34;;;26.27;15.80
29197;BME280;62796;42.654;23.316;2023-02-22T10:38:34;94451.22;;;26.39;15.96
29197;BME280;62796;42.654;23.316;2023-02-22T10:43:28;94428.88;;;26.72;15.56
29197;BME280;62796;42.654;23.316;2023-02-22T10:45:57;94428.81;;;26.53;15.09
29197;BME280;62796;42.654;23.316;2023-02-22T10:48:26;94427.94;;;26.60;15.10
29197;BME280;62796;42.654;23.316;2023-02-22T10:50:58;94417.75;;;26.48;15.40
29197;BME280;62796;42.654;23.316;2023-02-22T10:53:26;94421.06;;;26.63;15.40
29197;BME280;62796;42.654;23.316;2023-02-22T10:56:17;94417.50;;;26.72;15.56
29197;BME280;62796;42.654;23.316;2023-02-22T10:58:57;94418.88;;;26.81;14.90
29197;BME280;62796;42.654;23.316;2023-02-22T11:04:04;94415.44;;;27.30;14.45
29197;BME280;62796;42.654;23.316;2023-02-22T11:06:34;94408.56;;;27.33;14.41
29197;BME280;62796;42.654;23.316;2023-02-22T11:09:08;94404.38;;;27.25;14.17
29197;BME280;62796;42.654;23.316;2023-02-22T11:11:35;94401.22;;;26.82;14.41
29197;BME280;62796;42.654;23.316;2023-02-22T11:14:01;94402.16;;;26.85;14.56
29197;BME280;62796;42.654;23.316;2023-02-22T11:16:41;94396.75;;;26.24;14.84
29197;BME280;62796;42.654;23.316;2023-02-22T11:19:26;94395.88;;;26.31;14.78
29197;BME280;62796;42.654;23.316;2023-02-22T11:21:58;94390.69;;;26.56;14.68
29197;BME280;62796;42.654;23.316;2023-02-22T11:24:25;94395.66;;;26.75;14.21
29197;BME280;62796;42.654;23.316;2023-02-22T11:26:55;94393.63;;;27.04;13.81
29197;BME280;62796;42.654;23.316;2023-02-22T11:29:31;94375.13;;;26.38;14.31
29197;BME280;62796;42.654;23.316;2023-02-22T11:32:01;94378.75;;;26.12;14.96
29197;BME280;62796;42.654;23.316;2023-02-22T11:34:28;94372.91;;;26.46;14.90
29197;BME280;62796;42.654;23.316;2023-02-22T11:36:55;94370.88;;;26.85;15.04
29197;BME280;62796;42.654;23.316;2023-02-22T11:39:28;94372.38;;;27.15;14.48
29197;BME280;62796;42.654;23.316;2023-02-22T11:41:58;94362.75;;;27.39;13.92
29197;BME280;62796;42.654;23.316;2023-02-22T11:44:37;94365.91;;;27.53;13.68
29197;BME280;62796;42.654;23.316;2023-02-22T11:47:10;94363.19;;;27.64;13.26
29197;BME280;62796;42.654;23.316;2023-02-22T11:49:38;94366.84;;;27.86;13.29
29197;BME280;62796;42.654;23.316;2023-02-22T11:52:24;94367.75;;;27.88;13.51
29197;BME280;62796;42.654;23.316;2023-02-22T11:55:16;94357.13;;;28.20;13.28
29197;BME280;62796;42.654;23.316;2023-02-22T12:00:51;94350.88;;;28.12;12.82
29197;BME280;62796;42.654;23.316;2023-02-22T12:06:24;94350.50;;;28.27;12.74
29197;BME280;62796;42.654;23.316;2023-02-22T12:11:36;94339.88;;;28.48;12.61
29197;BME280;62796;42.654;23.316;2023-02-22T12:19:46;94333.72;;;27.50;13.13
29197;BME280;62796;42.654;23.316;2023-02-22T12:25:02;94330.31;;;27.82;12.92
29197;BME280;62796;42.654;23.316;2023-02-22T12:30:26;94316.38;;;28.17;12.43
29197;BME280;62796;42.654;23.316;2023-02-22T12:32:59;94321.50;;;28.40;12.52
29197;BME280;62796;42.654;23.316;2023-02-22T12:35:28;94322.75;;;28.58;12.15
29197;BME280;62796;42.654;23.316;2023-02-22T12:41:33;94320.25;;;29.39;11.70
29197;BME280;62796;42.654;23.316;2023-02-22T12:43:43;94314.59;;;29.51;11.30
29197;BME280;62796;42.654;23.316;2023-02-22T12:46:15;94318.44;;;29.44;11.64
29197;BME280;62796;42.654;23.316;2023-02-22T12:49:16;94317.66;;;29.32;11.72
29197;BME280;62796;42.654;23.316;2023-02-22T12:52:40;94302.53;;;29.41;11.61
29197;BME280;62796;42.654;23.316;2023-02-22T12:57:34;94302.25;;;29.81;11.24
29197;BME280;62796;42.654;23.316;2023-02-22T13:02:59;94302.50;;;29.85;11.20
29197;BME280;62796;42.654;23.316;2023-02-22T13:05:32;94294.69;;;29.97;11.31
29197;BME280;62796;42.654;23.316;2023-02-22T13:08:09;94304.47;;;29.71;11.39
29197;BME280;62796;42.654;23.316;2023-02-22T13:10:55;94304.59;;;29.96;11.34
29197;BME280;62796;42.654;23.316;2023-02-22T13:19:05;94295.16;;;30.29;10.80
29197;BME280;62796;42.654;23.316;2023-02-22T13:21:59;94287.47;;;30.43;10.42
29197;BME280;62796;42.654;23.316;2023-02-22T13:24:36;94286.50;;;30.03;10.80
29197;BME280;62796;42.654;23.316;2023-02-22T13:27:17;94296.75;;;30.32;10.23
29197;BME280;62796;42.654;23.316;2023-02-22T13:29:47;94297.28;;;30.40;10.17
29197;BME280;62796;42.654;23.316;2023-02-22T13:37:58;94289.94;;;30.37;10.28
29197;BME280;62796;42.654;23.316;2023-02-22T13:48:53;94279.50;;;30.41;10.46
29197;BME280;62796;42.654;23.316;2023-02-22T13:51:47;94275.16;;;30.52;10.61
29197;BME280;62796;42.654;23.316;2023-02-22T13:54:23;94278.78;;;30.17;10.74
29197;BME280;62796;42.654;23.316;2023-02-22T13:56:51;94286.09;;;30.32;10.63
29197;BME280;62796;42.654;23.316;2023-02-22T14:01:49;94272.44;;;29.17;11.67
29197;BME280;62796;42.654;23.316;2023-02-22T14:06:53;94269.75;;;29.86;11.20
29197;BME280;62796;42.654;23.316;2023-02-22T14:09:45;94273.69;;;29.81;11.31
29197;BME280;62796;42.654;23.316;2023-02-22T14:18:02;94281.00;;;30.31;11.02
29197;BME280;62796;42.654;23.316;2023-02-22T14:23:37;94281.19;;;31.32;10.51
29197;BME280;62796;42.654;23.316;2023-02-22T14:31:27;94270.09;;;31.12;10.54
29197;BME280;62796;42.654;23.316;2023-02-22T14:34:15;94275.38;;;31.30;10.32
29197;BME280;62796;42.654;23.316;2023-02-22T14:36:46;94277.06;;;31.35;10.38
29197;BME280;62796;42.654;23.316;2023-02-22T14:39:22;94268.25;;;31.31;10.45
29197;BME280;62796;42.654;23.316;2023-02-22T14:41:54;94267.38;;;31.14;10.65
29197;BME280;62796;42.654;23.316;2023-02-22T14:44:25;94268.72;;;31.39;10.20
29197;BME280;62796;42.654;23.316;2023-02-22T14:46:53;94263.47;;;30.96;10.82
29197;BME280;62796;42.654;23.316;2023-02-22T14:49:24;94265.34;;;30.55;11.17
29197;BME280;62796;42.654;23.316;2023-02-22T14:51:58;94260.72;;;30.50;11.42
29197;BME280;62796;42.654;23.316;2023-02-22T14:54:33;94259.97;;;30.38;11.42
29197;BME280;62796;42.654;23.316;2023-02-22T15:00:18;94279.78;;;30.10;11.77
29197;BME280;62796;42.654;23.316;2023-02-22T15:02:46;94263.00;;;29.70;11.92
29197;BME280;62796;42.654;23.316;2023-02-22T15:05:15;94263.78;;;28.82;12.46